Time;durP1;ratioP1;P1;durP2;ratioP2;P2;SDS_P1;SDS_P2;PMS_P1;PMS_P2;Temp;Humidity;BMP_temperature;BMP_pressure;BME280_temperature;BME280_humidity;BME280_pressure;Samples;Min_cycle;Max_cycle;Signal;HPM_P1;HPM_P2
2022/09/10 00:01:37;;;;;;;;;1.00;1.00;;;;;24.41;44.07;100914.72;5037594;28;45374;-51
2022/09/10 00:04:06;;;;;;;;;1.25;1.25;;;;;24.38;44.30;100908.66;5038182;28;45440;-52
2022/09/10 00:06:31;;;;;;;;;1.00;1.00;;;;;24.38;43.86;100908.66;5037545;28;45435;-52
2022/09/10 00:08:57;;;;;;;;;1.00;1.00;;;;;24.37;44.03;100914.06;5043589;28;45197;-49
2022/09/10 00:11:26;;;;;;;;;2.00;1.25;;;;;24.37;44.51;100922.88;5051926;28;45230;-45
2022/09/10 00:13:52;;;;;;;;;2.00;2.00;;;;;24.37;43.86;100922.88;5044657;28;46166;-48
2022/09/10 00:16:18;;;;;;;;;2.50;2.00;;;;;24.37;44.48;100920.22;5036847;28;45264;-52
2022/09/10 00:18:45;;;;;;;;;2.75;1.25;;;;;24.38;44.10;100923.69;5038392;28;45305;-46
2022/09/10 00:21:14;;;;;;;;;0.00;0.00;;;;;24.36;44.16;100909.75;5037863;28;45254;-50
2022/09/10 00:23:39;;;;;;;;;2.25;1.00;;;;;24.36;43.69;100918.50;5036971;28;47392;-49
2022/09/10 00:26:13;;;;;;;;;2.75;1.00;;;;;24.36;44.00;100920.34;5038151;28;45398;-47
2022/09/10 00:28:39;;;;;;;;;3.00;1.00;;;;;24.36;44.55;100920.34;5042244;28;45353;-48
2022/09/10 00:31:04;;;;;;;;;3.50;1.75;;;;;24.36;43.92;100907.91;5044233;28;45283;-49
2022/09/10 00:33:30;;;;;;;;;1.75;1.75;;;;;24.36;44.43;100912.38;5044519;28;46301;-50
2022/09/10 00:35:56;;;;;;;;;4.50;1.00;;;;;24.35;44.29;100910.69;5054584;28;46315;-46
2022/09/10 00:38:22;;;;;;;;;2.75;1.00;;;;;24.35;44.36;100902.75;5054898;28;45428;-53
2022/09/10 00:40:47;;;;;;;;;2.00;2.00;;;;;24.35;43.80;100908.88;5053692;28;45309;-48
2022/09/10 00:43:19;;;;;;;;;3.50;1.00;;;;;24.34;44.26;100901.88;5039843;28;45408;-50
2022/09/10 00:45:48;;;;;;;;;2.00;2.00;;;;;24.34;43.81;100903.69;5035676;28;45648;-49
2022/09/10 00:48:19;;;;;;;;;1.00;0.75;;;;;24.34;44.09;100911.66;5043258;28;45239;-45
2022/09/10 00:50:50;;;;;;;;;1.00;1.00;;;;;24.33;43.90;100900.19;5043700;28;45292;-48
2022/09/10 00:53:20;;;;;;;;;1.50;1.00;;;;;24.34;43.95;100903.69;5039096;28;47288;-46
2022/09/10 00:55:49;;;;;;;;;4.00;1.00;;;;;24.33;44.12;100902.00;5036852;28;45372;-47
2022/09/10 00:58:18;;;;;;;;;1.50;1.50;;;;;24.33;44.31;100892.22;5037759;28;45274;-47
2022/09/10 01:00:44;;;;;;;;;1.50;1.00;;;;;24.32;44.29;100901.13;5035907;28;45303;-46
2022/09/10 01:03:11;;;;;;;;;1.75;1.00;;;;;24.32;43.88;100903.78;5037199;28;46185;-53
2022/09/10 01:05:41;;;;;;;;;1.50;1.00;;;;;24.32;44.38;100893.19;5039943;28;45738;-54
2022/09/10 01:08:11;;;;;;;;;1.00;1.00;;;;;24.32;44.34;100902.94;5042988;28;45337;-48
2022/09/10 01:11:01;;;;;;;;;0.75;0.75;;;;;24.31;44.08;100896.78;5036905;28;45455;-50
2022/09/10 01:13:58;;;;;;;;;1.00;0.25;;;;;24.31;43.82;100890.66;5004235;28;46075;-48
2022/09/10 01:16:41;;;;;;;;;1.25;1.00;;;;;24.30;43.68;100888.97;4993852;28;45447;-48
2022/09/10 01:19:27;;;;;;;;;2.75;1.00;;;;;24.30;44.14;100889.81;5017167;28;45387;-46
2022/09/10 01:22:10;;;;;;;;;1.00;1.00;;;;;24.31;43.75;100901.25;5021002;28;45380;-53
2022/09/10 01:25:02;;;;;;;;;1.00;1.00;;;;;24.30;43.78;100892.47;5020451;28;46064;-50
2022/09/10 01:27:27;;;;;;;;;1.00;1.00;;;;;24.30;43.79;100894.25;5020999;28;45368;-47
2022/09/10 01:30:10;;;;;;;;;3.00;1.00;;;;;24.30;43.66;100894.25;5047286;28;45316;-51
2022/09/10 01:32:51;;;;;;;;;3.50;1.25;;;;;24.29;44.23;100890.78;5039960;28;45541;-48
2022/09/10 01:35:29;;;;;;;;;1.00;1.00;;;;;24.28;44.27;100901.47;5036859;28;46152;-49
2022/09/10 01:37:58;;;;;;;;;2.00;1.00;;;;;24.29;44.18;100897.84;5036858;28;45772;-53
2022/09/10 01:40:28;;;;;;;;;2.00;2.00;;;;;24.29;44.28;100898.72;5040853;28;45354;-49
2022/09/10 01:43:02;;;;;;;;;1.00;1.00;;;;;24.27;43.74;100900.63;5055252;28;45331;-49
2022/09/10 01:45:31;;;;;;;;;2.00;1.00;;;;;24.28;43.70;100902.31;5044516;28;47306;-50
2022/09/10 01:48:16;;;;;;;;;2.00;1.00;;;;;24.28;44.27;100904.97;5042761;28;45328;-48
2022/09/10 01:51:10;;;;;;;;;2.25;1.75;;;;;24.28;44.22;100901.47;5053608;28;44780;-47
2022/09/10 01:53:36;;;;;;;;;1.25;1.25;;;;;24.28;44.07;100901.47;5036886;28;45439;-53
2022/09/10 01:56:14;;;;;;;;;0.75;0.75;;;;;24.28;44.29;100912.91;5036772;28;46013;-49
2022/09/10 01:58:42;;;;;;;;;1.75;1.75;;;;;24.28;43.84;100909.41;5034664;28;45339;-52
2022/09/10 02:01:16;;;;;;;;;1.25;0.50;;;;;24.28;43.73;100912.91;5038291;28;45315;-50
2022/09/10 02:03:46;;;;;;;;;1.00;1.00;;;;;24.27;43.83;100911.22;5040763;28;45633;-49
2022/09/10 02:06:15;;;;;;;;;2.25;1.00;;;;;24.27;44.35;100905.94;5042981;28;46236;-48
2022/09/10 02:08:44;;;;;;;;;5.50;2.00;;;;;24.27;44.35;100905.94;5046407;28;45633;-44
2022/09/10 02:11:13;;;;;;;;;1.00;1.00;;;;;24.27;44.27;100908.56;5040202;28;45399;-46
2022/09/10 02:13:39;;;;;;;;;1.50;1.00;;;;;24.27;43.88;100911.22;5039304;28;45552;-45
2022/09/10 02:16:09;;;;;;;;;1.50;1.50;;;;;24.26;43.93;100908.66;5040727;28;45467;-48
2022/09/10 02:18:38;;;;;;;;;1.25;1.25;;;;;24.26;43.79;100901.59;5040197;28;45381;-50
2022/09/10 02:21:03;;;;;;;;;2.00;1.00;;;;;24.27;43.76;100913.00;5051507;28;45478;-46
2022/09/10 02:23:35;;;;;;;;;2.75;1.00;;;;;24.26;43.95;100908.66;5050593;28;44987;-50
2022/09/10 02:26:01;;;;;;;;;1.00;1.00;;;;;24.26;43.87;100903.38;5040467;28;46428;-47
2022/09/10 02:28:26;;;;;;;;;1.00;1.00;;;;;24.26;43.74;100906.00;5038768;28;45625;-53
2022/09/10 02:30:52;;;;;;;;;1.00;1.00;;;;;24.25;43.97;100902.53;5046769;28;45422;-49
2022/09/10 02:33:17;;;;;;;;;1.75;1.75;;;;;24.23;43.85;100902.66;5045880;28;45422;-46
2022/09/10 02:35:43;;;;;;;;;2.00;0.50;;;;;24.24;44.05;100914.06;5041861;28;61503;-51
2022/09/10 02:38:08;;;;;;;;;2.00;1.00;;;;;24.23;43.79;100910.59;5052486;28;45405;-52
2022/09/10 02:40:34;;;;;;;;;1.25;1.25;;;;;24.23;44.13;100904.44;5046041;28;45265;-55
2022/09/10 02:42:59;;;;;;;;;1.00;1.00;;;;;24.23;44.20;100904.44;5043035;28;45264;-49
2022/09/10 02:45:25;;;;;;;;;2.25;1.50;;;;;24.22;44.26;100902.75;5046387;28;45258;-45
2022/09/10 02:47:50;;;;;;;;;1.00;1.00;;;;;24.22;44.18;100902.75;5044553;28;45255;-49
2022/09/10 02:50:16;;;;;;;;;2.25;1.00;;;;;24.21;44.15;100895.75;5040116;28;45317;-49
2022/09/10 02:52:44;;;;;;;;;3.50;1.00;;;;;24.22;44.31;100908.03;5041093;28;45449;-47
2022/09/10 02:55:11;;;;;;;;;1.50;1.50;;;;;24.22;44.02;100908.03;5043320;28;47408;-48
2022/09/10 02:57:38;;;;;;;;;2.75;2.00;;;;;24.21;44.22;100911.63;5039657;28;45521;-49
2022/09/10 03:00:04;;;;;;;;;1.00;1.00;;;;;24.20;43.77;100907.28;5044070;28;45499;-46
2022/09/10 03:02:29;;;;;;;;;2.50;1.25;;;;;24.21;43.73;100916.94;5052671;28;44983;-52
2022/09/10 03:04:54;;;;;;;;;3.00;0.50;;;;;24.20;44.20;100915.22;5042616;28;45312;-47
2022/09/10 03:07:19;;;;;;;;;1.00;1.00;;;;;24.19;43.71;100913.56;5042480;28;65678;-46
2022/09/10 03:09:46;;;;;;;;;1.00;1.00;;;;;24.21;44.11;100916.94;5048117;28;44687;-49
2022/09/10 03:12:12;;;;;;;;;0.75;0.75;;;;;24.21;44.24;100917.78;5040494;28;45391;-46
2022/09/10 03:14:37;;;;;;;;;0.00;0.00;;;;;24.21;44.20;100919.59;5038860;28;46776;-52
2022/09/10 03:17:03;;;;;;;;;1.75;1.00;;;;;24.21;43.95;100927.53;5039084;28;49052;-50
2022/09/10 03:19:28;;;;;;;;;3.25;0.75;;;;;24.21;43.67;100924.88;5037930;28;45843;-52
2022/09/10 03:21:53;;;;;;;;;2.00;2.00;;;;;24.20;43.89;100915.22;5041413;28;45521;-51
2022/09/10 03:24:19;;;;;;;;;2.75;2.00;;;;;24.20;44.22;100909.94;5047866;28;46589;-49
2022/09/10 03:26:44;;;;;;;;;3.00;1.00;;;;;24.20;44.03;100909.94;5049476;28;51918;-52
2022/09/10 03:29:10;;;;;;;;;1.75;1.00;;;;;24.20;43.97;100915.22;5037907;28;45520;-48
2022/09/10 03:31:36;;;;;;;;;1.50;1.00;;;;;24.19;44.09;100911.75;5039344;28;45355;-47
2022/09/10 03:34:02;;;;;;;;;2.75;2.00;;;;;24.18;44.06;100923.28;5042886;28;45384;-47
2022/09/10 03:36:30;;;;;;;;;2.50;2.00;;;;;24.19;43.78;100921.50;5038834;28;45592;-51
2022/09/10 03:38:56;;;;;;;;;0.75;0.75;;;;;24.19;43.82;100921.50;5038747;28;45403;-49
2022/09/10 03:41:21;;;;;;;;;3.00;1.00;;;;;24.18;44.09;100909.22;5038353;28;45373;-47
2022/09/10 03:43:48;;;;;;;;;2.00;2.00;;;;;24.20;44.02;100915.22;5036831;28;53170;-50
2022/09/10 03:46:14;;;;;;;;;1.00;1.00;;;;;24.19;44.13;100913.56;5038324;28;45181;-52
2022/09/10 03:48:40;;;;;;;;;1.50;1.00;;;;;24.19;44.00;100916.22;5041467;28;45435;-49
2022/09/10 03:51:05;;;;;;;;;1.00;1.00;;;;;24.18;43.84;100903.94;5057497;28;45322;-47
2022/09/10 03:53:30;;;;;;;;;1.00;1.00;;;;;24.18;43.75;100923.28;5045648;28;45393;-52
2022/09/10 03:55:56;;;;;;;;;1.75;1.75;;;;;24.19;44.13;100925.00;5041389;28;46344;-55
2022/09/10 03:58:21;;;;;;;;;3.25;1.75;;;;;24.18;43.93;100927.75;5036918;28;45354;-52
2022/09/10 04:00:46;;;;;;;;;1.00;1.00;;;;;24.17;43.55;100918.13;5039610;28;45507;-52
2022/09/10 04:03:13;;;;;;;;;7.25;2.00;;;;;24.17;43.57;100926.91;5042482;28;55189;-47
2022/09/10 04:05:42;;;;;;;;;1.50;1.50;;;;;24.18;44.16;100922.47;5043500;28;45389;-54
2022/09/10 04:08:09;;;;;;;;;2.00;2.00;;;;;24.17;43.81;100926.91;5046632;28;45417;-50
2022/09/10 04:10:34;;;;;;;;;2.50;1.25;;;;;24.17;43.59;100932.19;5043153;28;45407;-54
2022/09/10 04:12:59;;;;;;;;;2.75;1.00;;;;;24.18;43.81;100927.75;5051317;28;46344;-49
2022/09/10 04:15:25;;;;;;;;;1.00;1.00;;;;;24.17;44.19;100918.13;5049669;28;62144;-51
2022/09/10 04:17:50;;;;;;;;;3.00;1.00;;;;;24.17;43.66;100920.78;5051892;28;44791;-48
2022/09/10 04:20:22;;;;;;;;;2.00;1.75;;;;;24.17;44.01;100921.59;5053398;28;45428;-49
2022/09/10 04:22:48;;;;;;;;;3.00;2.00;;;;;24.16;43.60;100925.19;5050677;28;45311;-48
2022/09/10 04:25:14;;;;;;;;;2.75;1.00;;;;;24.17;43.55;100926.06;5053000;28;44875;-55
2022/09/10 04:27:40;;;;;;;;;1.75;1.75;;;;;24.16;44.14;100929.66;5047022;28;45338;-51
2022/09/10 04:30:07;;;;;;;;;1.75;1.00;;;;;24.15;43.91;100920.84;5043950;28;45350;-48
2022/09/10 04:32:32;;;;;;;;;2.00;2.00;;;;;24.16;43.85;100929.66;5050134;28;45471;-46
2022/09/10 04:34:57;;;;;;;;;2.75;1.75;;;;;24.16;43.64;100921.72;5046251;28;55923;-50
2022/09/10 04:37:23;;;;;;;;;3.75;2.00;;;;;24.16;43.88;100919.06;5050787;28;45342;-55
2022/09/10 04:39:49;;;;;;;;;5.25;2.00;;;;;24.15;43.58;100920.84;5056489;28;44892;-54
2022/09/10 04:42:16;;;;;;;;;1.50;1.50;;;;;24.16;43.86;100927.00;5051055;28;46079;-52
2022/09/10 04:44:41;;;;;;;;;2.00;1.00;;;;;24.15;44.05;100927.97;5041187;28;45296;-52
2022/09/10 04:47:07;;;;;;;;;3.00;1.50;;;;;24.15;44.17;100927.97;5040490;28;45390;-47
2022/09/10 04:49:32;;;;;;;;;3.00;1.75;;;;;24.14;43.78;100927.13;5043077;28;52809;-50
2022/09/10 04:51:57;;;;;;;;;1.00;1.00;;;;;24.14;43.99;100920.97;5038718;28;62354;-54
2022/09/10 04:54:23;;;;;;;;;1.00;1.00;;;;;24.15;43.75;100933.25;5037441;28;45339;-53
2022/09/10 04:56:49;;;;;;;;;1.75;1.00;;;;;24.14;43.86;100926.28;5035246;28;55243;-50
2022/09/10 04:59:14;;;;;;;;;2.00;2.00;;;;;24.14;44.02;100920.97;5037211;28;45463;-50
2022/09/10 05:01:39;;;;;;;;;2.75;2.00;;;;;24.14;43.59;100931.56;5037550;28;45919;-46
2022/09/10 05:04:06;;;;;;;;;3.00;2.00;;;;;24.14;43.58;100934.22;5037091;28;45776;-52
2022/09/10 05:06:31;;;;;;;;;1.00;1.00;;;;;24.13;43.75;100936.03;5037070;28;45367;-50
2022/09/10 05:08:57;;;;;;;;;3.00;1.00;;;;;24.13;44.05;100945.75;5037074;28;45327;-52
2022/09/10 05:11:24;;;;;;;;;2.50;2.00;;;;;24.13;43.80;100945.75;5035149;28;47149;-50
2022/09/10 05:13:49;;;;;;;;;1.25;1.00;;;;;24.12;44.11;100944.06;5037395;28;45292;-48
2022/09/10 05:16:15;;;;;;;;;1.00;1.00;;;;;24.12;44.03;100949.34;5040618;28;45332;-52
2022/09/10 05:18:40;;;;;;;;;6.25;1.75;;;;;24.12;44.12;100958.16;5047917;28;45344;-48
2022/09/10 05:21:06;;;;;;;;;2.75;1.00;;;;;24.13;44.17;100961.63;5044664;28;45251;-47
2022/09/10 05:23:31;;;;;;;;;2.75;1.00;;;;;24.12;43.59;100957.28;5037660;28;45361;-51
2022/09/10 05:25:57;;;;;;;;;2.00;2.00;;;;;24.12;44.06;100967.88;5034530;28;45196;-51
2022/09/10 05:28:23;;;;;;;;;2.50;2.00;;;;;24.12;44.18;100959.94;5037394;28;45359;-49
2022/09/10 05:30:49;;;;;;;;;2.00;1.00;;;;;24.13;43.66;100964.28;5037099;28;46185;-46
2022/09/10 05:33:15;;;;;;;;;2.00;1.00;;;;;24.13;43.65;100966.94;5036490;28;45485;-46
2022/09/10 05:35:40;;;;;;;;;1.25;1.25;;;;;24.12;43.81;100968.75;5042800;28;45434;-46
2022/09/10 05:38:07;;;;;;;;;2.25;1.00;;;;;24.12;43.66;100970.53;5056972;28;44768;-49
2022/09/10 05:40:33;;;;;;;;;1.50;1.50;;;;;24.13;43.59;100961.63;5045051;28;45354;-50
2022/09/10 05:42:59;;;;;;;;;4.50;1.75;;;;;24.12;44.00;100971.41;5043121;28;45691;-49
2022/09/10 05:45:24;;;;;;;;;1.75;1.75;;;;;24.11;44.07;100969.72;5047003;28;50190;-48
2022/09/10 05:47:51;;;;;;;;;1.50;1.00;;;;;24.12;44.12;100978.47;5044069;28;45319;-46
2022/09/10 05:50:17;;;;;;;;;1.00;1.00;;;;;24.12;43.96;100981.13;5049559;28;46156;-49
2022/09/10 05:52:43;;;;;;;;;2.00;2.00;;;;;24.12;43.78;100984.63;5056875;28;45304;-54
2022/09/10 05:55:10;;;;;;;;;2.75;1.75;;;;;24.12;44.07;100989.06;5043194;28;45462;-58
2022/09/10 05:57:36;;;;;;;;;1.50;1.50;;;;;24.11;44.03;100990.88;5040511;28;45525;-51
2022/09/10 06:00:05;;;;;;;;;1.00;1.00;;;;;24.09;44.25;100990.97;5038872;28;45436;-49
2022/09/10 06:02:30;;;;;;;;;1.50;1.50;;;;;24.09;43.89;100996.25;5038869;28;45342;-49
2022/09/10 06:04:56;;;;;;;;;1.00;1.00;;;;;24.11;44.25;100996.19;5039236;28;45347;-50
2022/09/10 06:07:22;;;;;;;;;3.00;1.00;;;;;24.08;44.00;100994.59;5038740;28;45298;-51
2022/09/10 06:09:47;;;;;;;;;2.00;0.75;;;;;24.11;43.75;101001.47;5038794;28;45364;-50
2022/09/10 06:12:14;;;;;;;;;3.00;1.00;;;;;24.12;43.96;101007.59;5037379;28;45474;-51
2022/09/10 06:14:39;;;;;;;;;1.00;1.00;;;;;24.11;43.68;101000.63;5039182;28;45494;-47
2022/09/10 06:17:05;;;;;;;;;1.00;1.00;;;;;24.11;43.87;101003.25;5037712;28;45609;-52
2022/09/10 06:19:30;;;;;;;;;1.25;1.00;;;;;24.12;43.69;101012.91;5037976;28;46180;-51
2022/09/10 06:21:56;;;;;;;;;2.00;2.00;;;;;24.11;44.11;101017.38;5038086;28;45416;-53
2022/09/10 06:24:23;;;;;;;;;2.50;2.00;;;;;24.09;44.14;101022.75;5038006;28;45450;-49
2022/09/10 06:26:49;;;;;;;;;1.75;1.00;;;;;24.11;44.10;101017.38;5036805;28;45477;-53
2022/09/10 06:29:15;;;;;;;;;2.25;1.75;;;;;24.11;43.73;101021.78;5036731;28;47934;-50
2022/09/10 06:31:41;;;;;;;;;2.25;1.00;;;;;24.11;43.86;101016.50;5038902;28;45302;-47
2022/09/10 06:34:06;;;;;;;;;1.25;1.25;;;;;24.11;43.76;101017.38;5040840;28;45220;-50
2022/09/10 06:36:32;;;;;;;;;2.00;2.00;;;;;24.10;43.57;101018.31;5039391;28;45399;-50
2022/09/10 06:38:58;;;;;;;;;1.75;1.50;;;;;24.11;44.06;101027.97;5039378;28;46560;-49
2022/09/10 06:41:24;;;;;;;;;0.50;0.50;;;;;24.11;43.98;101033.25;5020785;28;45925;-50
2022/09/10 06:43:49;;;;;;;;;1.00;1.00;;;;;24.12;43.63;101028.78;5004802;28;45456;-49
2022/09/10 06:46:17;;;;;;;;;1.75;1.00;;;;;24.12;44.17;101029.66;5038065;28;45480;-50
2022/09/10 06:48:44;;;;;;;;;3.25;2.00;;;;;24.12;43.97;101039.38;5036495;28;45783;-57
2022/09/10 06:51:11;;;;;;;;;4.75;2.00;;;;;24.13;43.94;101035.78;5038242;28;45274;-49
2022/09/10 06:53:38;;;;;;;;;1.00;1.00;;;;;24.12;43.63;101036.72;5036806;28;45319;-50
2022/09/10 06:56:07;;;;;;;;;3.00;1.50;;;;;24.13;44.13;101038.44;5036865;28;45571;-52
2022/09/10 06:58:34;;;;;;;;;1.50;1.00;;;;;24.11;43.69;101035.91;5038096;28;46578;-50
2022/09/10 07:01:09;;;;;;;;;2.50;1.50;;;;;24.13;44.04;101041.09;5037176;28;45663;-54
2022/09/10 07:03:35;;;;;;;;;1.75;1.75;;;;;24.13;44.04;101041.09;5036217;28;45411;-47
2022/09/10 07:06:09;;;;;;;;;2.75;1.75;;;;;24.13;44.26;101041.94;5020087;28;45260;-51
2022/09/10 07:08:36;;;;;;;;;1.00;1.00;;;;;24.12;43.65;101045.53;5036523;28;47514;-51
2022/09/10 07:11:10;;;;;;;;;1.25;1.00;;;;;24.11;44.13;101054.44;5036990;28;45773;-51
2022/09/10 07:13:36;;;;;;;;;2.00;1.25;;;;;24.12;44.29;101052.63;5036962;28;45705;-48
2022/09/10 07:16:02;;;;;;;;;1.75;1.75;;;;;24.12;43.65;101056.13;5037269;28;45553;-47
2022/09/10 07:18:29;;;;;;;;;1.00;1.00;;;;;24.14;43.85;101063.97;5038459;28;47258;-49
2022/09/10 07:21:07;;;;;;;;;1.75;1.00;;;;;24.12;44.19;101061.44;5036618;28;45880;-51
2022/09/10 07:23:34;;;;;;;;;1.25;1.25;;;;;24.13;43.77;101067.56;5038436;28;45386;-49
2022/09/10 07:26:13;;;;;;;;;1.75;1.25;;;;;24.12;44.17;101065.88;5037894;28;45582;-47
2022/09/10 07:28:41;;;;;;;;;5.00;2.50;;;;;24.12;43.99;101065.88;5038892;28;46184;-47
2022/09/10 07:31:20;;;;;;;;;1.00;1.00;;;;;24.12;44.05;101066.72;5037979;28;45411;-53
2022/09/10 07:33:46;;;;;;;;;1.50;1.50;;;;;24.11;44.17;101065.03;5039728;28;45388;-48
2022/09/10 07:36:12;;;;;;;;;2.00;1.00;;;;;24.12;43.58;101071.16;5037411;28;45764;-51
2022/09/10 07:38:39;;;;;;;;;0.75;0.00;;;;;24.12;44.11;101065.88;5038423;28;45394;-47
2022/09/10 07:41:06;;;;;;;;;1.75;1.75;;;;;24.12;43.50;101071.16;5036853;28;45806;-46
2022/09/10 07:43:32;;;;;;;;;1.00;1.00;;;;;24.12;43.59;101065.88;5038047;28;45422;-54
2022/09/10 07:45:57;;;;;;;;;2.00;2.00;;;;;24.11;43.95;101070.31;5037432;28;45457;-50
2022/09/10 07:48:24;;;;;;;;;2.50;1.25;;;;;24.11;44.13;101070.31;5037248;28;45967;-49
2022/09/10 07:50:49;;;;;;;;;3.00;1.00;;;;;24.11;43.72;101080.06;5038666;28;45487;-47
2022/09/10 07:53:16;;;;;;;;;1.00;1.00;;;;;24.10;43.69;101076.56;5038365;28;45373;-55
2022/09/10 07:55:42;;;;;;;;;2.00;1.75;;;;;24.11;44.30;101080.06;5035274;28;45560;-47
2022/09/10 07:58:08;;;;;;;;;5.00;2.00;;;;;24.11;44.09;101085.34;5035736;28;45353;-47
2022/09/10 08:00:34;;;;;;;;;2.00;2.00;;;;;24.11;44.24;101090.66;5036583;28;45363;-52
2022/09/10 08:03:00;;;;;;;;;1.00;1.00;;;;;24.12;44.42;101089.69;5035577;28;45439;-51
2022/09/10 08:05:27;;;;;;;;;2.00;2.00;;;;;24.12;44.26;101093.22;5037078;28;45338;-51
2022/09/10 08:07:53;;;;;;;;;1.00;1.00;;;;;24.12;44.19;101092.34;5038451;28;45512;-54
2022/09/10 08:10:20;;;;;;;;;2.00;2.00;;;;;24.11;44.19;101096.81;5035542;28;45419;-51
2022/09/10 08:12:46;;;;;;;;;1.25;1.25;;;;;24.11;44.00;101096.81;5037574;28;45349;-49
2022/09/10 08:15:11;;;;;;;;;1.00;1.00;;;;;24.11;44.26;101098.59;5038161;28;45905;-44
2022/09/10 08:17:37;;;;;;;;;2.00;1.00;;;;;24.12;44.30;101095.00;5019179;28;46680;-50
2022/09/10 08:20:07;;;;;;;;;1.00;1.00;;;;;24.11;43.93;101098.59;5036448;28;45358;-51
2022/09/10 08:22:33;;;;;;;;;2.00;2.00;;;;;24.12;43.97;101101.16;5036117;28;45273;-47
2022/09/10 08:25:00;;;;;;;;;1.25;1.00;;;;;24.13;43.81;101102.00;5035028;28;45391;-50
2022/09/10 08:27:25;;;;;;;;;2.75;1.25;;;;;24.13;43.79;101099.34;5035970;28;45360;-49
2022/09/10 08:29:52;;;;;;;;;1.00;1.00;;;;;24.13;44.13;101100.22;5036787;28;45671;-50
2022/09/10 08:32:17;;;;;;;;;1.00;1.00;;;;;24.13;43.91;101100.22;5038193;28;45332;-51
2022/09/10 08:34:42;;;;;;;;;1.50;1.50;;;;;24.14;44.02;101098.38;5038732;28;45224;-46
2022/09/10 08:37:08;;;;;;;;;2.00;2.00;;;;;24.14;43.82;101107.19;5037776;28;45407;-47
2022/09/10 08:39:33;;;;;;;;;1.00;1.00;;;;;24.14;43.85;101111.63;5035234;28;45322;-49
2022/09/10 08:42:15;;;;;;;;;1.00;1.00;;;;;24.13;43.97;101104.63;5038835;28;45240;-47
2022/09/10 08:44:56;;;;;;;;;2.00;2.00;;;;;24.13;44.45;101110.78;5038481;28;45322;-47
2022/09/10 08:47:54;;;;;;;;;1.50;1.00;;;;;24.13;43.99;101116.09;5036121;28;45414;-50
2022/09/10 08:50:30;;;;;;;;;1.00;1.00;;;;;24.14;44.44;101116.94;5035914;28;45235;-48
2022/09/10 08:53:04;;;;;;;;;1.75;1.75;;;;;24.14;44.49;101119.56;5034667;28;45451;-51
2022/09/10 08:55:33;;;;;;;;;3.00;2.00;;;;;24.14;44.28;101120.44;5034440;28;45244;-48
2022/09/10 08:58:12;;;;;;;;;1.25;1.00;;;;;24.15;43.90;101115.97;5035977;28;46111;-49
2022/09/10 09:00:40;;;;;;;;;1.25;1.25;;;;;24.14;44.08;101127.53;5036638;28;45648;-49
2022/09/10 09:03:05;;;;;;;;;3.00;1.00;;;;;24.15;44.46;101126.56;5036580;28;45236;-49
2022/09/10 09:05:50;;;;;;;;;1.75;1.25;;;;;24.15;43.91;101129.22;5037818;28;45319;-50
2022/09/10 09:08:21;;;;;;;;;2.75;2.00;;;;;24.14;44.57;101132.81;5033439;28;46706;-48
2022/09/10 09:10:55;;;;;;;;;1.00;1.00;;;;;24.15;44.11;101139.81;5035084;28;46386;-48
2022/09/10 09:13:36;;;;;;;;;2.25;1.50;;;;;24.14;44.50;101144.28;5034617;28;45443;-48
2022/09/10 09:16:46;;;;;;;;;1.00;1.00;;;;;24.14;44.10;101144.28;5035779;28;45320;-50
2022/09/10 09:19:30;;;;;;;;;3.25;2.00;;;;;24.14;44.62;101138.13;5033980;28;46806;-45
2022/09/10 09:22:03;;;;;;;;;1.75;1.00;;;;;24.14;44.06;101138.97;5038435;28;45767;-48
2022/09/10 09:24:31;;;;;;;;;2.00;2.00;;;;;24.14;44.75;101140.75;5035995;28;45517;-50
2022/09/10 09:27:08;;;;;;;;;2.00;2.00;;;;;24.14;44.30;101144.28;5041403;28;45241;-50
2022/09/10 09:29:46;;;;;;;;;1.00;1.00;;;;;24.13;44.94;101153.16;5046226;28;46065;-49
2022/09/10 09:32:15;;;;;;;;;2.75;1.00;;;;;24.15;44.74;101150.41;5037131;28;45640;-49
2022/09/10 09:34:49;;;;;;;;;2.00;2.00;;;;;24.14;44.90;101152.22;5046028;28;45335;-52
2022/09/10 09:37:20;;;;;;;;;3.00;2.00;;;;;24.15;44.68;101150.41;5050908;28;45453;-46
2022/09/10 09:40:04;;;;;;;;;2.25;2.25;;;;;24.15;44.69;101158.34;5042016;28;45516;-48
2022/09/10 09:42:37;;;;;;;;;1.25;1.25;;;;;24.14;44.38;101159.28;5038300;28;45410;-52
2022/09/10 09:45:02;;;;;;;;;2.00;2.00;;;;;24.15;44.87;101155.69;5040512;28;45439;-50
2022/09/10 09:47:28;;;;;;;;;2.75;2.00;;;;;24.13;44.45;101160.25;5038579;28;45479;-51
2022/09/10 09:49:54;;;;;;;;;1.50;1.50;;;;;24.14;44.93;101164.59;5040297;28;46040;-52
2022/09/10 09:52:25;;;;;;;;;3.50;2.75;;;;;24.15;44.99;101166.28;5048594;28;45759;-54
2022/09/10 09:54:55;;;;;;;;;2.00;2.00;;;;;24.13;45.06;101168.19;5049417;28;45332;-47
2022/09/10 09:57:20;;;;;;;;;1.00;1.00;;;;;24.13;44.92;101173.47;5042333;28;45215;-50
2022/09/10 09:59:49;;;;;;;;;2.00;2.00;;;;;24.13;45.29;101176.13;5037447;28;46342;-54
2022/09/10 10:02:21;;;;;;;;;3.00;1.00;;;;;24.11;45.01;101173.59;5034981;28;45792;-51
2022/09/10 10:05:08;;;;;;;;;1.75;1.75;;;;;24.12;45.23;101179.72;5036515;28;45310;-55
2022/09/10 10:07:37;;;;;;;;;1.00;1.00;;;;;24.11;45.09;101175.38;5035085;28;45554;-50
2022/09/10 10:10:06;;;;;;;;;2.00;2.00;;;;;24.11;45.31;101180.69;5036391;28;46540;-54
2022/09/10 10:12:32;;;;;;;;;2.00;2.00;;;;;24.12;45.26;101177.94;5034911;28;45775;-52
2022/09/10 10:14:59;;;;;;;;;1.25;1.00;;;;;24.12;45.30;101179.72;5036995;28;45333;-50
2022/09/10 10:17:40;;;;;;;;;3.00;1.50;;;;;24.13;44.93;101186.72;5035353;28;45406;-53
2022/09/10 10:20:14;;;;;;;;;3.00;1.00;;;;;24.12;45.48;101185.88;5037059;28;47168;-52
2022/09/10 10:22:47;;;;;;;;;1.75;1.25;;;;;24.12;45.04;101182.38;5041018;28;45208;-52
2022/09/10 10:25:40;;;;;;;;;3.00;2.00;;;;;24.13;45.44;101182.28;5043362;28;45402;-50
2022/09/10 10:28:31;;;;;;;;;3.00;3.00;;;;;24.12;45.52;101179.72;5045577;28;45449;-49
2022/09/10 10:30:59;;;;;;;;;3.00;3.00;;;;;24.13;45.09;101184.06;5045742;28;45188;-51
2022/09/10 10:33:32;;;;;;;;;2.00;2.00;;;;;24.12;45.54;101177.06;5042194;28;45401;-48
2022/09/10 10:36:40;;;;;;;;;3.00;3.00;;;;;24.12;45.14;101182.38;5052812;28;45292;-50
2022/09/10 10:39:18;;;;;;;;;2.00;2.00;;;;;24.09;45.69;101184.25;5050778;28;45639;-47
2022/09/10 10:42:12;;;;;;;;;2.00;2.00;;;;;24.11;45.69;101186.84;5042286;28;46213;-47
2022/09/10 10:44:59;;;;;;;;;2.00;1.50;;;;;24.09;45.33;101176.31;5057908;28;45167;-47
2022/09/10 10:47:39;;;;;;;;;2.00;2.00;;;;;24.10;45.27;101185.13;5050387;28;44579;-52
2022/09/10 10:50:36;;;;;;;;;2.00;2.00;;;;;24.09;45.45;101181.63;5057743;28;45449;-51
2022/09/10 10:53:25;;;;;;;;;3.00;3.00;;;;;24.09;45.80;101178.97;5042994;28;46606;-48
2022/09/10 10:56:25;;;;;;;;;4.00;2.00;;;;;24.11;45.92;101185.97;5038940;28;45420;-53
2022/09/10 10:59:15;;;;;;;;;2.75;2.75;;;;;24.09;45.94;101175.50;5038810;28;45478;-51
2022/09/10 11:01:49;;;;;;;;;3.00;2.75;;;;;24.11;46.14;101175.38;5040672;28;45605;-51
2022/09/10 11:04:15;;;;;;;;;3.50;2.00;;;;;24.12;45.94;101174.44;5041710;28;46654;-57
2022/09/10 11:06:46;;;;;;;;;2.00;2.00;;;;;24.11;45.95;101175.38;5042545;28;45273;-52
2022/09/10 11:09:22;;;;;;;;;3.00;3.00;;;;;24.12;46.24;101171.78;5042823;28;45315;-47
2022/09/10 11:11:56;;;;;;;;;1.25;1.25;;;;;24.12;46.16;101175.28;5040932;28;45260;-49
2022/09/10 11:14:34;;;;;;;;;2.25;2.25;;;;;24.12;46.24;101166.50;5040629;28;46258;-49
2022/09/10 11:17:13;;;;;;;;;3.25;2.25;;;;;24.13;46.28;101170.84;5040028;28;45244;-50
2022/09/10 11:19:57;;;;;;;;;2.75;2.75;;;;;24.13;46.32;101169.06;5045586;28;45259;-49
2022/09/10 11:22:29;;;;;;;;;3.00;3.00;;;;;24.14;46.41;101165.47;5037844;28;45504;-51
2022/09/10 11:25:15;;;;;;;;;2.00;2.00;;;;;24.14;46.17;101165.47;5038056;28;45452;-55
2022/09/10 11:27:47;;;;;;;;;6.75;3.00;;;;;24.14;46.12;101164.59;5007591;28;45526;-54
2022/09/10 11:30:15;;;;;;;;;2.50;2.50;;;;;24.16;46.44;101165.34;5037903;28;45320;-55
2022/09/10 11:32:55;;;;;;;;;3.25;2.00;;;;;24.16;46.23;101160.88;5041053;28;45189;-54
2022/09/10 11:35:23;;;;;;;;;2.00;2.00;;;;;24.16;46.13;101158.25;5039937;28;45476;-55
2022/09/10 11:38:06;;;;;;;;;2.00;2.00;;;;;24.17;46.60;101161.75;5035532;28;45345;-54